X  Sluiten METAR luchtvaart weer gegevens      EBBR Brussels Airport
Temperatuur
8°C Temperatuur
-3°C Dauwpunt
46% Vochtigheid



Wind
5 km/u
3 MPH
1 M/S
3 KTS



60°
ONO
Huidig weer

Area Buien Area Buien
Luchtdruk 1029.92 (hPa) - 30.41 (inHg)
Zicht 6.2 (mijl) - 10 (km)
Vliegveld
Vliegveld code EBBR

Locatie : Brussels Airport
Afstand: 14 (km)

Metar:
EBBR 141350Z 06003KT 360V110 9999 VCSH SCT049 08/M03 Q1030 NOSIG

Tijd: 04-14-2021 15:50 CEST